Time;durP1;ratioP1;P1;durP2;ratioP2;P2;SDS_P1;SDS_P2;PMS_P1;PMS_P2;Temp;Humidity;BMP_temperature;BMP_pressure;BME280_temperature;BME280_humidity;BME280_pressure;Samples;Min_cycle;Max_cycle;Signal;HPM_P1;HPM_P2
2022/01/20 00:01:51;;;;;;;26.50;13.97;;;;;;;1.93;100.00;99880.59;10502551;28;20222;-66
2022/01/20 00:28:52;;;;;;;21.47;11.60;;;;;;;1.95;100.00;99848.22;10473872;28;20232;-65
2022/01/20 00:34:08;;;;;;;23.53;11.83;;;;;;;1.93;100.00;99834.53;10504625;28;20214;-65
2022/01/20 00:39:13;;;;;;;23.53;13.13;;;;;;;2.03;100.00;99825.31;10504743;28;20693;-68
2022/01/20 00:44:16;;;;;;;27.30;13.03;;;;;;;2.05;100.00;99810.84;10504408;28;20210;-65
2022/01/20 00:49:20;;;;;;;27.30;11.80;;;;;;;2.23;100.00;99798.31;10483207;28;20725;-65
2022/01/20 00:54:25;;;;;;;24.40;12.30;;;;;;;2.19;100.00;99794.84;10462460;28;20211;-65
2022/01/20 00:59:30;;;;;;;22.13;10.97;;;;;;;2.32;100.00;99788.19;10462678;28;20526;-65
2022/01/20 01:04:34;;;;;;;19.20;11.07;;;;;;;2.30;100.00;99777.94;10462302;28;20203;-63
2022/01/20 01:09:40;;;;;;;21.93;11.33;;;;;;;2.34;100.00;99766.91;10461688;28;20732;-65
2022/01/20 01:14:48;;;;;;;22.67;11.30;;;;;;;2.31;100.00;99743.81;10461920;28;20219;-65
2022/01/20 01:20:11;;;;;;;19.00;10.83;;;;;;;2.33;100.00;99744.69;10461570;28;20247;-65
2022/01/20 01:25:16;;;;;;;19.83;10.30;;;;;;;2.40;100.00;99739.66;10461348;28;20706;-66
2022/01/20 01:30:40;;;;;;;25.23;11.80;;;;;;;2.43;100.00;99716.66;10460768;28;20220;-67
2022/01/20 01:35:43;;;;;;;25.47;11.67;;;;;;;2.38;100.00;99717.44;10461008;28;20599;-66
2022/01/20 01:40:48;;;;;;;19.57;11.37;;;;;;;2.42;100.00;99714.94;10459887;28;20228;-65
2022/01/20 01:45:51;;;;;;;21.13;11.27;;;;;;;2.38;100.00;99695.25;10460425;28;20244;-64
2022/01/20 01:50:54;;;;;;;19.70;11.13;;;;;;;2.27;100.00;99677.22;10460261;28;20220;-64
2022/01/20 01:55:59;;;;;;;34.07;16.93;;;;;;;2.28;100.00;99674.66;10460199;28;20189;-64
2022/01/20 02:01:03;;;;;;;22.40;12.07;;;;;;;2.31;100.00;99671.28;10459757;28;20193;-66
2022/01/20 02:06:24;;;;;;;20.57;11.33;;;;;;;2.19;100.00;99651.50;10459997;28;20276;-66
2022/01/20 02:22:12;;;;;;;42.83;21.53;;;;;;;2.01;100.00;99627.41;10459303;28;20220;-64
2022/01/20 02:27:15;;;;;;;23.97;12.87;;;;;;;2.10;100.00;99624.97;10459311;28;20229;-65
2022/01/20 02:32:18;;;;;;;37.30;19.47;;;;;;;2.12;100.00;99611.34;10459118;28;20265;-63
2022/01/20 02:37:23;;;;;;;23.83;13.13;;;;;;;2.02;100.00;99586.50;10458968;28;20213;-65
2022/01/20 02:47:50;;;;;;;23.03;12.03;;;;;;;1.80;100.00;99579.41;10459429;28;20221;-67
2022/01/20 02:52:54;;;;;;;25.43;15.60;;;;;;;1.72;100.00;99575.91;10463626;28;20239;-65
2022/01/20 02:57:58;;;;;;;22.33;13.07;;;;;;;1.66;100.00;99542.56;10467094;28;20335;-63
2022/01/20 03:03:02;;;;;;;27.07;14.47;;;;;;;1.56;100.00;99545.88;10467017;28;20216;-62
2022/01/20 03:08:07;;;;;;;29.37;15.83;;;;;;;1.59;100.00;99542.50;10466733;28;20303;-67
2022/01/20 03:13:10;;;;;;;26.67;15.33;;;;;;;1.63;100.00;99531.44;10466438;28;20239;-66
2022/01/20 03:18:14;;;;;;;25.93;16.47;;;;;;;1.54;100.00;99528.78;10466239;28;20254;-65
2022/01/20 03:23:18;;;;;;;28.73;13.17;;;;;;;1.51;100.00;99526.19;10466187;28;20220;-62
2022/01/20 03:28:21;;;;;;;25.30;14.30;;;;;;;1.52;100.00;99523.66;10466158;28;20239;-64
2022/01/20 03:33:25;;;;;;;23.67;14.93;;;;;;;1.53;100.00;99517.72;10465780;28;20312;-63
2022/01/20 03:38:29;;;;;;;23.60;12.73;;;;;;;1.51;100.00;99505.75;10465690;28;20217;-63
2022/01/20 03:43:32;;;;;;;22.63;13.50;;;;;;;1.45;100.00;99498.84;10465214;28;20220;-64
2022/01/20 03:48:38;;;;;;;26.67;13.63;;;;;;;1.40;100.00;99504.78;10465164;28;20279;-62
2022/01/20 03:53:43;;;;;;;20.37;12.37;;;;;;;1.44;100.00;99499.69;10464989;28;20217;-69
2022/01/20 03:58:47;;;;;;;22.17;11.97;;;;;;;1.57;100.00;99501.56;10464845;28;20215;-66
2022/01/20 04:03:51;;;;;;;21.20;13.07;;;;;;;1.77;100.00;99497.53;10463543;28;20193;-65
2022/01/20 04:08:56;;;;;;;23.57;12.13;;;;;;;1.53;100.00;99492.16;10464276;28;20272;-66
2022/01/20 04:14:02;;;;;;;18.27;10.53;;;;;;;1.57;100.00;99485.38;10464110;28;20224;-65
2022/01/20 04:19:10;;;;;;;20.80;11.77;;;;;;;1.57;100.00;99470.03;10463921;28;20232;-66
2022/01/20 04:24:15;;;;;;;18.47;9.90;;;;;;;1.67;100.00;99488.06;10464259;28;20566;-64
2022/01/20 04:29:19;;;;;;;19.33;11.27;;;;;;;1.66;100.00;99478.66;10463729;28;20184;-64
2022/01/20 04:34:22;;;;;;;18.87;9.87;;;;;;;1.67;100.00;99475.28;10463267;28;20223;-63
2022/01/20 04:39:31;;;;;;;17.00;10.43;;;;;;;1.70;100.00;99466.75;10463402;28;20192;-65
2022/01/20 04:44:41;;;;;;;19.07;10.13;;;;;;;1.79;100.00;99461.75;10463138;28;20209;-62
2022/01/20 05:00:28;;;;;;;16.70;10.63;;;;;;;1.96;100.00;99448.28;10503715;28;20234;-65
2022/01/20 05:05:31;;;;;;;17.20;10.17;;;;;;;1.96;100.00;99449.97;10503587;28;20226;-64
2022/01/20 05:10:36;;;;;;;16.10;9.47;;;;;;;1.99;100.00;99435.50;10503363;28;20242;-67
2022/01/20 05:15:40;;;;;;;16.43;9.97;;;;;;;2.13;100.00;99439.06;10502834;28;20645;-64
2022/01/20 05:20:43;;;;;;;22.07;12.90;;;;;;;2.02;100.00;99421.91;10486816;28;20691;-64
2022/01/20 05:25:48;;;;;;;26.93;15.13;;;;;;;2.21;100.00;99424.59;10474923;28;20524;-66
2022/01/20 05:30:51;;;;;;;15.43;9.70;;;;;;;2.21;100.00;99432.28;10502534;28;20736;-65
2022/01/20 05:35:55;;;;;;;15.53;9.10;;;;;;;2.34;100.00;99418.75;10485478;28;20635;-63
2022/01/20 05:41:00;;;;;;;18.23;11.13;;;;;;;2.26;100.00;99422.94;10460795;28;20193;-66
2022/01/20 05:46:04;;;;;;;18.97;10.73;;;;;;;2.26;100.00;99407.56;10460579;28;20627;-65
2022/01/20 05:51:07;;;;;;;16.10;9.87;;;;;;;2.31;100.00;99400.78;10470734;28;20311;-65
2022/01/20 05:56:12;;;;;;;17.30;11.70;;;;;;;2.26;100.00;99405.00;10460295;28;20276;-64
2022/01/20 06:01:15;;;;;;;19.23;9.43;;;;;;;2.32;100.00;99460.53;10459972;28;20211;-65
2022/01/20 06:06:21;;;;;;;13.07;7.67;;;;;;;2.10;100.00;99469.75;10459893;28;20258;-63
2022/01/20 06:11:25;;;;;;;11.87;5.47;;;;;;;2.09;100.00;99475.69;10459560;28;20647;-64
2022/01/20 06:16:29;;;;;;;14.10;4.43;;;;;;;1.98;100.00;99461.94;10470473;28;20207;-64
2022/01/20 06:21:32;;;;;;;7.60;2.73;;;;;;;1.87;100.00;99440.50;10468766;28;20234;-67
2022/01/20 06:26:37;;;;;;;6.40;3.00;;;;;;;1.86;100.00;99448.19;10500090;28;20206;-64
2022/01/20 06:31:40;;;;;;;9.27;2.80;;;;;;;1.88;100.00;99454.16;10495212;28;20225;-66
2022/01/20 06:36:43;;;;;;;6.63;1.80;;;;;;;1.91;100.00;99423.50;10470500;28;20299;-65
2022/01/20 06:41:48;;;;;;;10.00;1.97;;;;;;;1.83;100.00;99431.09;10486167;28;20614;-63
2022/01/20 06:46:51;;;;;;;4.47;1.30;;;;;;;1.86;100.00;99428.59;10460676;28;20662;-66
2022/01/20 06:51:54;;;;;;;9.13;1.60;;;;;;;1.83;100.00;99420.84;10471858;28;20230;-61
2022/01/20 06:56:59;;;;;;;9.23;1.60;;;;;;;1.75;100.00;99411.41;10487355;28;20311;-65
2022/01/20 07:02:03;;;;;;;8.80;1.90;;;;;;;1.90;100.00;99424.31;10472001;28;20216;-65
2022/01/20 07:07:07;;;;;;;8.70;1.73;;;;;;;1.89;100.00;99438.84;10468920;28;20675;-66
2022/01/20 07:12:12;;;;;;;5.87;1.53;;;;;;;1.82;100.00;99424.28;10475111;28;20231;-62
2022/01/20 07:17:15;;;;;;;8.50;1.47;;;;;;;1.91;100.00;99421.81;10125855;27;10000311;-65
2022/01/20 07:22:19;;;;;;;7.77;2.10;;;;;;;1.77;100.00;99417.38;10494492;28;20303;-65
2022/01/20 07:27:24;;;;;;;8.07;1.57;;;;;;;1.82;100.00;99419.16;10473818;28;20215;-65
2022/01/20 07:32:28;;;;;;;10.43;1.70;;;;;;;1.99;100.00;99422.72;10482129;28;20226;-67
2022/01/20 07:37:31;;;;;;;9.57;1.80;;;;;;;1.82;100.00;99420.84;10496252;28;20541;-63
2022/01/20 07:42:36;;;;;;;9.57;2.03;;;;;;;1.93;100.00;99409.84;10503470;28;20298;-65
2022/01/20 07:47:39;;;;;;;9.87;1.27;;;;;;;1.83;100.00;99410.63;10502850;28;20220;-66
2022/01/20 07:52:42;;;;;;;7.97;2.10;;;;;;;1.83;100.00;99417.47;10502994;28;20307;-65
2022/01/20 07:57:47;;;;;;;8.87;2.00;;;;;;;1.86;100.00;99405.56;10502889;28;20316;-63
2022/01/20 08:02:50;;;;;;;8.77;2.23;;;;;;;1.87;98.51;99393.59;10502401;28;20836;-65
2022/01/20 08:07:54;;;;;;;8.33;2.27;;;;;;;2.06;97.39;99393.78;10482717;28;20615;-64
2022/01/20 08:12:59;;;;;;;9.23;2.00;;;;;;;2.19;96.16;99398.13;10497101;28;20227;-65
2022/01/20 08:18:02;;;;;;;6.17;1.97;;;;;;;2.20;94.50;99407.53;10511615;28;20238;-65
2022/01/20 08:23:06;;;;;;;7.27;1.53;;;;;;;2.30;92.09;99406.75;10509640;28;20215;-65
2022/01/20 08:28:11;;;;;;;9.03;1.90;;;;;;;2.34;91.35;99377.78;10501344;28;20681;-64
2022/01/20 08:33:15;;;;;;;7.73;1.73;;;;;;;2.47;91.52;99370.19;10493365;28;20221;-67
2022/01/20 08:38:18;;;;;;;10.23;2.43;;;;;;;2.54;92.54;99354.84;10495797;28;20218;-67
2022/01/20 08:43:23;;;;;;;2.40;1.07;;;;;;;2.88;91.33;99358.44;10463585;28;20220;-68
2022/01/20 08:48:26;;;;;;;5.67;1.00;;;;;;;2.86;91.16;99344.78;10497308;28;20215;-66
2022/01/20 08:53:31;;;;;;;6.77;1.90;;;;;;;2.62;92.81;99360.03;10500660;28;20215;-67
2022/01/20 08:58:35;;;;;;;9.27;1.93;;;;;;;2.78;92.45;99347.28;10500056;28;20226;-64
2022/01/20 09:03:39;;;;;;;4.97;1.90;;;;;;;2.85;90.84;99371.22;10494704;28;20680;-69
2022/01/20 09:08:42;;;;;;;9.90;2.07;;;;;;;2.95;90.88;99389.22;10479854;28;20251;-67
2022/01/20 09:19:07;;;;;;;10.30;1.83;;;;;;;2.84;89.61;99362.69;10517021;28;20249;-67
2022/01/20 09:24:11;;;;;;;6.23;1.73;;;;;;;2.89;89.46;99391.75;10510147;28;20302;-67
2022/01/20 09:29:15;;;;;;;9.20;1.90;;;;;;;2.95;86.76;99363.59;10496400;28;20218;-65
2022/01/20 09:34:19;;;;;;;6.67;1.60;;;;;;;2.80;86.97;99332.78;10472488;28;20220;-67
2022/01/20 09:39:22;;;;;;;6.17;1.53;;;;;;;2.82;86.49;99340.47;10496142;28;20219;-65
2022/01/20 09:44:27;;;;;;;5.30;1.40;;;;;;;2.84;84.92;99318.28;10498166;28;20228;-67
2022/01/20 09:49:30;;;;;;;9.73;1.97;;;;;;;3.01;80.79;99311.50;10498921;28;20215;-67
2022/01/20 09:54:34;;;;;;;6.73;1.43;;;;;;;2.75;79.98;99324.22;10501056;28;20236;-65
2022/01/20 09:59:39;;;;;;;7.20;1.77;;;;;;;2.76;80.93;99331.06;10475084;28;20216;-67
2022/01/20 10:04:42;;;;;;;5.93;1.33;;;;;;;2.52;77.61;99327.53;10481487;28;20548;-67
2022/01/20 10:09:49;;;;;;;8.33;1.73;;;;;;;2.42;75.95;99331.75;10494642;28;20192;-64
2022/01/20 10:14:56;;;;;;;8.13;1.73;;;;;;;2.52;73.52;99330.94;10492595;28;20304;-65
2022/01/20 10:20:01;;;;;;;11.40;2.13;;;;;;;2.52;74.31;99338.63;10490339;28;20518;-65
2022/01/20 10:25:08;;;;;;;5.43;1.50;;;;;;;2.40;74.88;99355.63;10500578;28;20645;-68
2022/01/20 10:30:14;;;;;;;7.27;1.53;;;;;;;2.51;74.14;99325.81;10500495;28;20243;-66
2022/01/20 10:35:24;;;;;;;6.90;2.30;;;;;;;2.49;73.70;99315.56;10500162;28;20226;-64
2022/01/20 10:40:28;;;;;;;7.30;1.40;;;;;;;2.55;73.48;99307.06;10500043;28;20196;-63
2022/01/20 10:45:33;;;;;;;8.07;1.70;;;;;;;2.66;72.89;99326.75;10500131;28;20634;-65
2022/01/20 10:50:40;;;;;;;4.50;1.33;;;;;;;2.67;69.95;99319.91;10500202;28;20203;-67
2022/01/20 10:55:43;;;;;;;6.13;1.20;;;;;;;2.64;68.10;99279.78;10499834;28;20220;-67
2022/01/20 11:00:50;;;;;;;7.20;2.27;;;;;;;2.71;66.73;99291.75;10499663;28;20648;-68
2022/01/20 11:05:54;;;;;;;8.50;1.63;;;;;;;2.45;68.59;99289.94;10499880;28;20223;-67
2022/01/20 11:10:59;;;;;;;7.77;1.70;;;;;;;2.34;67.20;99303.56;10499202;28;20545;-66
2022/01/20 11:16:03;;;;;;;8.50;2.07;;;;;;;2.16;67.48;99285.53;10507558;28;20216;-69
2022/01/20 11:21:07;;;;;;;8.60;2.20;;;;;;;2.27;67.86;99288.16;10506494;28;20227;-67
2022/01/20 11:26:10;;;;;;;8.27;1.63;;;;;;;2.29;68.08;99292.44;10507198;28;20218;-64
2022/01/20 11:31:15;;;;;;;7.07;1.77;;;;;;;2.19;69.22;99298.31;10506536;28;20599;-64
2022/01/20 11:36:23;;;;;;;10.07;2.17;;;;;;;2.30;70.97;99300.94;10506488;28;20305;-68
2022/01/20 11:41:49;;;;;;;7.90;2.10;;;;;;;2.56;73.52;99306.19;10504120;28;20420;-66
2022/01/20 11:47:04;;;;;;;6.10;1.20;;;;;;;2.99;67.93;99306.38;10506161;28;20243;-66
2022/01/20 11:52:08;;;;;;;3.90;1.40;;;;;;;3.23;66.53;99308.13;10506343;28;20306;-67
2022/01/20 11:57:14;;;;;;;5.97;1.10;;;;;;;3.27;68.01;99315.00;10505635;28;20625;-68
2022/01/20 12:02:28;;;;;;;4.33;0.93;;;;;;;2.64;71.86;99320.75;10505782;28;20216;-66
2022/01/20 12:07:34;;;;;;;2.93;0.87;;;;;;;2.30;74.32;99353.00;10505079;28;20261;-67
2022/01/20 12:12:39;;;;;;;11.60;1.33;;;;;;;1.78;79.17;99361.13;10505368;28;20310;-63
2022/01/20 12:17:50;;;;;;;6.37;1.10;;;;;;;1.35;84.14;99363.28;10504789;28;20334;-66
2022/01/20 12:22:55;;;;;;;28.17;13.83;;;;;;;1.57;84.03;99348.16;10504778;28;20318;-69
2022/01/20 12:28:06;;;;;;;5.57;1.40;;;;;;;1.56;82.18;99351.56;10503212;28;20657;-67
2022/01/20 12:33:14;;;;;;;3.53;1.00;;;;;;;1.59;78.10;99349.03;10504532;28;20311;-67
2022/01/20 12:38:22;;;;;;;3.13;1.03;;;;;;;2.06;74.23;99349.41;10504174;28;20216;-66
2022/01/20 12:43:39;;;;;;;3.57;1.33;;;;;;;2.31;72.50;99343.63;10504516;28;20353;-68
2022/01/20 12:48:55;;;;;;;2.77;0.93;;;;;;;2.80;68.19;99348.16;10503686;28;20215;-69
2022/01/20 12:54:05;;;;;;;3.83;1.20;;;;;;;2.19;69.95;99343.56;10503633;28;20239;-65
2022/01/20 12:59:09;;;;;;;50.90;24.87;;;;;;;1.97;71.21;99357.88;10503185;28;20576;-71
2022/01/20 13:04:36;;;;;;;3.57;1.00;;;;;;;1.90;70.88;99356.13;10503362;28;20216;-69
2022/01/20 13:09:41;;;;;;;7.53;1.60;;;;;;;1.77;68.82;99358.56;10502821;28;20216;-67
2022/01/20 13:14:48;;;;;;;5.07;1.27;;;;;;;1.84;67.95;99366.31;10502785;28;20276;-68
2022/01/20 13:19:55;;;;;;;5.07;1.23;;;;;;;1.80;68.75;99350.91;10502249;28;20236;-68
2022/01/20 13:25:06;;;;;;;5.67;1.00;;;;;;;1.60;67.92;99362.69;10502343;28;20228;-68
2022/01/20 13:30:10;;;;;;;3.50;1.07;;;;;;;1.05;87.47;99394.47;10497420;28;20665;-70
2022/01/20 13:35:14;;;;;;;5.53;1.80;;;;;;;0.26;100.00;99391.69;10498297;28;20242;-67
2022/01/20 13:40:21;;;;;;;6.30;1.80;;;;;;;0.20;100.00;99399.22;10500190;28;20208;-66
2022/01/20 13:45:24;;;;;;;8.23;2.20;;;;;;;0.13;100.00;99405.06;10500722;28;20215;-66
2022/01/20 13:50:31;;;;;;;12.00;3.30;;;;;;;0.01;100.00;99403.19;10501159;28;20563;-66
2022/01/20 13:55:38;;;;;;;10.27;2.10;;;;;;;-0.13;100.00;99385.13;10500965;28;20650;-66
2022/01/20 14:00:41;;;;;;;10.03;2.03;;;;;;;-0.24;100.00;99376.41;10500951;28;20212;-68
2022/01/20 14:05:46;;;;;;;89.93;42.97;;;;;;;-0.09;100.00;99380.94;10501050;28;20611;-71
2022/01/20 14:10:49;;;;;;;9.93;2.00;;;;;;;-0.08;100.00;99382.63;10500401;28;20204;-66
2022/01/20 14:16:01;;;;;;;8.67;2.47;;;;;;;-0.26;100.00;99393.38;10500402;28;20289;-64
2022/01/20 14:21:08;;;;;;;7.03;2.00;;;;;;;-0.22;100.00;99392.59;10499914;28;20235;-68
2022/01/20 14:26:13;;;;;;;9.67;2.17;;;;;;;-0.19;100.00;99428.34;10500469;28;20228;-68
2022/01/20 14:31:17;;;;;;;8.97;1.53;;;;;;;-0.39;100.00;99459.41;10499889;28;20223;-67
2022/01/20 14:36:21;;;;;;;5.87;0.97;;;;;;;-0.83;100.00;99429.69;10500222;28;20224;-65
2022/01/20 14:41:24;;;;;;;3.23;1.03;;;;;;;-0.70;100.00;99421.44;10499935;28;20303;-65
2022/01/20 14:46:28;;;;;;;6.00;0.97;;;;;;;-0.80;100.00;99429.72;10500377;28;20226;-66
2022/01/20 14:51:32;;;;;;;3.27;0.87;;;;;;;-0.85;100.00;99433.88;10508190;28;20722;-67
2022/01/20 14:56:38;;;;;;;4.30;1.00;;;;;;;-0.56;100.00;99432.75;10469590;28;20248;-67
2022/01/20 15:01:41;;;;;;;3.73;1.30;;;;;;;-0.61;100.00;99440.31;10484035;28;20219;-65
2022/01/20 15:06:46;;;;;;;6.60;1.40;;;;;;;-0.47;100.00;99438.03;10506881;28;20234;-69
2022/01/20 15:11:50;;;;;;;5.63;2.07;;;;;;;-0.37;100.00;99435.69;10507279;28;20226;-66
2022/01/20 15:16:53;;;;;;;5.90;1.90;;;;;;;-0.35;100.00;99430.59;10504946;28;20300;-67
2022/01/20 15:21:58;;;;;;;4.97;1.40;;;;;;;-0.15;100.00;99447.09;10153210;28;10000237;-68
2022/01/20 15:27:01;;;;;;;6.27;1.83;;;;;;;-0.26;100.00;99435.88;10504069;28;20270;-68
2022/01/20 15:32:07;;;;;;;8.87;2.20;;;;;;;-0.22;100.00;99440.16;10503234;28;20216;-64
2022/01/20 15:37:12;;;;;;;9.27;1.97;;;;;;;-0.54;100.00;99465.09;10503419;28;20611;-64
2022/01/20 15:42:15;;;;;;;7.97;2.00;;;;;;;-0.83;100.00;99458.56;10502796;28;20242;-68
2022/01/20 15:47:19;;;;;;;7.83;1.70;;;;;;;-0.93;100.00;99471.91;10503049;28;20224;-67
2022/01/20 15:52:23;;;;;;;7.07;1.67;;;;;;;-0.75;100.00;99461.25;10502986;28;20220;-67
2022/01/20 15:57:27;;;;;;;5.53;1.50;;;;;;;-0.73;100.00;99465.56;10502370;28;20224;-64
2022/01/20 16:02:30;;;;;;;4.97;1.17;;;;;;;-0.62;100.00;99458.13;10501350;28;20228;-66
2022/01/20 16:07:36;;;;;;;3.53;1.27;;;;;;;-0.71;100.00;99469.00;10502601;28;20220;-69
2022/01/20 16:12:39;;;;;;;3.77;1.10;;;;;;;-0.60;100.00;99487.88;10501916;28;20297;-66
2022/01/20 16:17:43;;;;;;;5.13;1.47;;;;;;;-0.62;100.00;99481.88;10501730;28;20688;-67
2022/01/20 16:22:48;;;;;;;4.37;1.47;;;;;;;-0.58;100.00;99483.69;10513271;28;20218;-66
2022/01/20 16:27:51;;;;;;;3.63;1.43;;;;;;;-0.75;100.00;99495.22;10501500;28;20203;-66
2022/01/20 16:32:54;;;;;;;6.10;1.67;;;;;;;-0.79;100.00;99498.53;10501573;28;20325;-68
2022/01/20 16:37:59;;;;;;;4.97;1.50;;;;;;;-0.62;100.00;99507.38;10501019;28;20273;-67
2022/01/20 16:43:03;;;;;;;4.33;1.67;;;;;;;-0.49;100.00;99499.16;10501896;28;20636;-65
2022/01/20 16:48:06;;;;;;;4.67;2.13;;;;;;;-0.68;100.00;99511.47;10503098;28;20197;-66
2022/01/20 16:53:11;;;;;;;5.53;1.90;;;;;;;-0.68;100.00;99516.56;10504027;28;20279;-64
2022/01/20 16:58:14;;;;;;;5.60;2.03;;;;;;;-0.65;100.00;99522.59;10503455;28;20557;-65
2022/01/20 17:03:18;;;;;;;3.50;1.00;;;;;;;-0.54;100.00;99522.81;10503442;28;20310;-65
2022/01/20 17:08:24;;;;;;;3.87;1.43;;;;;;;-0.45;100.00;99534.03;10503174;28;20200;-67
2022/01/20 17:13:27;;;;;;;8.10;1.50;;;;;;;-0.42;100.00;99561.28;10502932;28;20329;-64
2022/01/20 17:18:31;;;;;;;6.53;1.40;;;;;;;-0.40;100.00;99557.09;10502627;28;20240;-65
2022/01/20 17:23:35;;;;;;;4.80;1.50;;;;;;;-0.44;100.00;99566.34;10502341;28;20668;-63
2022/01/20 17:28:39;;;;;;;4.60;1.63;;;;;;;-0.46;100.00;99567.13;10502086;28;20233;-67
2022/01/20 17:33:42;;;;;;;4.40;1.67;;;;;;;-0.36;100.00;99580.09;10502002;28;20212;-68
2022/01/20 17:38:47;;;;;;;4.93;1.80;;;;;;;-0.33;100.00;99590.34;10501850;28;20680;-66
2022/01/20 17:43:50;;;;;;;4.60;1.57;;;;;;;-0.29;100.00;99589.59;10502146;28;20227;-64
2022/01/20 17:48:53;;;;;;;4.53;1.00;;;;;;;-0.23;100.00;99593.97;10501504;28;20216;-65
2022/01/20 17:54:00;;;;;;;8.23;1.60;;;;;;;-0.17;100.00;99609.38;10500284;28;20215;-69
2022/01/20 17:59:03;;;;;;;5.47;1.43;;;;;;;-0.31;99.26;99609.09;10501076;28;20709;-64
2022/01/20 18:04:07;;;;;;;4.33;1.50;;;;;;;-0.34;100.00;99610.72;10500647;28;20212;-65
2022/01/20 18:09:12;;;;;;;5.43;1.93;;;;;;;-0.34;100.00;99619.22;10498054;28;20298;-67
2022/01/20 18:14:16;;;;;;;6.43;1.90;;;;;;;-0.24;100.00;99628.78;10498709;28;20692;-65
2022/01/20 18:19:19;;;;;;;11.23;1.90;;;;;;;-0.31;100.00;99621.84;10497544;28;20242;-64
2022/01/20 18:24:24;;;;;;;7.10;1.87;;;;;;;-0.39;100.00;99630.16;10497088;28;20733;-64
2022/01/20 18:29:27;;;;;;;5.00;2.07;;;;;;;-0.26;100.00;99627.88;10497228;28;20534;-67
2022/01/20 18:34:32;;;;;;;9.27;1.97;;;;;;;-0.24;100.00;99640.66;10497045;28;20687;-65
2022/01/20 18:39:37;;;;;;;8.23;1.53;;;;;;;-0.28;100.00;99644.00;10147550;28;10000693;-65
2022/01/20 18:44:41;;;;;;;4.87;1.77;;;;;;;-0.12;100.00;99640.91;10496863;28;20245;-65
2022/01/20 18:49:45;;;;;;;4.80;2.40;;;;;;;-0.41;100.00;99642.88;10496878;28;20232;-65
2022/01/20 18:54:50;;;;;;;4.53;1.50;;;;;;;-0.31;100.00;99649.88;10497117;28;20238;-64
2022/01/20 18:59:53;;;;;;;4.67;1.70;;;;;;;-0.36;99.69;99646.38;10496677;28;20681;-64
2022/01/20 19:04:56;;;;;;;5.60;1.67;;;;;;;-0.38;100.00;99670.97;10496618;28;20669;-62
2022/01/20 19:10:05;;;;;;;5.13;1.87;;;;;;;-0.45;100.00;99655.53;10496355;28;20222;-66
2022/01/20 19:15:10;;;;;;;5.97;2.03;;;;;;;-0.47;100.00;99670.78;10496198;28;20234;-66
2022/01/20 19:20:16;;;;;;;8.20;1.83;;;;;;;-0.57;100.00;99679.00;10496315;28;20236;-64
2022/01/20 19:25:21;;;;;;;5.50;2.23;;;;;;;-0.61;100.00;99671.28;10496169;28;20216;-66
2022/01/20 19:30:26;;;;;;;21.20;7.07;;;;;;;-0.52;100.00;99679.97;10495864;28;20241;-66
2022/01/20 19:35:29;;;;;;;9.70;2.40;;;;;;;-0.51;100.00;99674.06;10498474;28;20224;-63
2022/01/20 19:40:34;;;;;;;7.83;1.90;;;;;;;-0.49;100.00;99681.75;10507703;28;20592;-66
2022/01/20 19:45:38;;;;;;;9.80;2.27;;;;;;;-0.51;100.00;99683.41;10505886;28;20326;-66
2022/01/20 19:50:41;;;;;;;11.13;3.50;;;;;;;-0.48;100.00;99686.88;10506368;28;20555;-67
2022/01/20 19:55:46;;;;;;;8.27;2.43;;;;;;;-0.47;100.00;99683.53;10506179;28;20220;-69
2022/01/20 20:00:50;;;;;;;8.57;2.80;;;;;;;-0.49;100.00;99699.59;10505870;28;20672;-66
2022/01/20 20:05:54;;;;;;;9.73;2.53;;;;;;;-0.56;100.00;99693.50;10506005;28;20345;-63
2022/01/20 20:10:58;;;;;;;6.37;2.80;;;;;;;-0.55;100.00;99713.03;10505520;28;20548;-66
2022/01/20 20:16:03;;;;;;;6.50;2.40;;;;;;;-0.65;100.00;99711.09;10505280;28;20657;-68
2022/01/20 20:21:07;;;;;;;7.13;2.80;;;;;;;-0.57;100.00;99721.50;10505157;28;20319;-68
2022/01/20 20:26:11;;;;;;;6.20;2.37;;;;;;;-0.41;99.92;99734.63;10504888;28;20219;-65
2022/01/20 20:31:15;;;;;;;8.67;2.67;;;;;;;-0.56;96.67;99739.34;10504873;28;20607;-66
2022/01/20 20:36:19;;;;;;;7.33;2.70;;;;;;;-0.34;93.80;99731.38;10504458;28;20708;-64
2022/01/20 20:41:24;;;;;;;8.87;1.70;;;;;;;-0.37;91.55;99731.31;10504535;28;20677;-64
2022/01/20 20:46:27;;;;;;;7.67;2.30;;;;;;;-0.50;89.85;99741.19;10503677;28;20212;-66
2022/01/20 20:51:31;;;;;;;9.23;1.70;;;;;;;-0.30;88.88;99751.03;10504405;28;20557;-68
2022/01/20 20:56:35;;;;;;;11.93;2.53;;;;;;;-0.38;86.33;99755.06;10504075;28;20235;-63
2022/01/20 21:01:39;;;;;;;4.90;1.63;;;;;;;-0.41;85.38;99777.94;10503819;28;20310;-65
2022/01/20 21:06:42;;;;;;;6.37;1.93;;;;;;;-0.33;85.14;99770.47;10503511;28;20627;-66
2022/01/20 21:11:47;;;;;;;8.63;2.10;;;;;;;-0.46;83.45;99771.88;10503200;28;20632;-65
2022/01/20 21:16:50;;;;;;;5.20;1.83;;;;;;;-0.35;81.99;99770.44;10503059;28;20247;-65
2022/01/20 21:21:54;;;;;;;5.40;1.80;;;;;;;-0.28;82.07;99779.97;10503052;28;20208;-65
2022/01/20 21:26:59;;;;;;;5.33;1.80;;;;;;;-0.32;81.62;99785.81;10502799;28;20254;-61
2022/01/20 21:32:05;;;;;;;6.20;1.40;;;;;;;-0.31;81.35;99777.31;10502548;28;20256;-66
2022/01/20 21:37:08;;;;;;;6.40;1.70;;;;;;;-0.15;79.68;99768.34;10502218;28;20622;-68
2022/01/20 21:42:13;;;;;;;3.70;1.20;;;;;;;-0.15;79.25;99771.75;10501981;28;20533;-66
2022/01/20 21:47:16;;;;;;;5.67;1.47;;;;;;;-0.12;79.45;99782.03;10502005;28;20196;-65
2022/01/20 21:52:20;;;;;;;6.53;1.63;;;;;;;-0.10;77.92;99779.50;10501886;28;20195;-65
2022/01/20 21:57:25;;;;;;;4.90;1.43;;;;;;;-0.09;75.81;99786.34;10500780;28;20224;-66
2022/01/20 22:02:28;;;;;;;5.23;1.50;;;;;;;-0.14;76.46;99793.03;10500491;28;20693;-68
2022/01/20 22:07:32;;;;;;;4.87;1.23;;;;;;;-0.11;74.80;99811.81;10500635;28;20294;-66
2022/01/20 22:12:37;;;;;;;9.53;2.03;;;;;;;-0.16;75.75;99803.19;10498137;28;20208;-65
2022/01/20 22:17:40;;;;;;;6.47;1.90;;;;;;;-0.12;73.99;99827.03;10497600;28;20565;-67
2022/01/20 22:22:44;;;;;;;3.63;1.40;;;;;;;-0.17;75.60;99818.44;10497698;28;20311;-65
2022/01/20 22:27:48;;;;;;;6.23;1.50;;;;;;;-0.12;74.31;99829.59;10498051;28;20216;-67
2022/01/20 22:32:51;;;;;;;5.50;1.53;;;;;;;-0.04;74.10;99836.63;10498104;28;20226;-66
2022/01/20 22:38:15;;;;;;;7.10;1.53;;;;;;;-0.06;74.43;99822.09;10146146;27;10000491;-65
2022/01/20 22:43:22;;;;;;;4.27;1.30;;;;;;;-0.02;72.89;99819.66;10497377;28;20606;-65
2022/01/20 22:48:27;;;;;;;4.83;1.43;;;;;;;-0.10;73.23;99827.94;10497170;28;20569;-66
2022/01/20 22:53:31;;;;;;;6.10;1.90;;;;;;;-0.07;72.71;99828.88;10495885;28;20219;-66
2022/01/20 22:58:36;;;;;;;7.53;2.27;;;;;;;-0.12;73.78;99842.34;10497036;28;20223;-68
2022/01/20 23:03:41;;;;;;;3.40;1.23;;;;;;;-0.08;73.01;99845.03;10496872;28;20212;-66
2022/01/20 23:08:44;;;;;;;7.57;1.70;;;;;;;-0.16;73.14;99846.53;10499567;28;20216;-67
2022/01/20 23:13:49;;;;;;;276.43;120.93;;;;;;;-0.04;72.73;99830.66;10504986;28;20239;-67
2022/01/20 23:19:02;;;;;;;9.90;2.27;;;;;;;0.12;72.52;99849.72;10504438;28;20235;-64
2022/01/20 23:24:06;;;;;;;6.10;1.77;;;;;;;0.17;72.21;99859.22;10504885;28;20211;-67
2022/01/20 23:29:11;;;;;;;4.80;1.33;;;;;;;0.08;71.52;99878.53;10504168;28;20220;-66
2022/01/20 23:34:16;;;;;;;5.47;1.60;;;;;;;-0.05;71.81;99862.94;10504780;28;20299;-68
2022/01/20 23:39:24;;;;;;;6.20;1.83;;;;;;;-0.19;72.01;99874.50;10535676;28;20219;-66
2022/01/20 23:44:36;;;;;;;7.90;1.90;;;;;;;-0.14;71.38;99889.91;10545706;28;20938;-67
2022/01/20 23:49:40;;;;;;;4.57;1.43;;;;;;;-0.25;72.40;99899.84;10545668;28;20219;-68
2022/01/20 23:54:43;;;;;;;6.53;1.70;;;;;;;-0.15;71.63;99898.38;10545326;28;20207;-68
2022/01/20 23:59:47;;;;;;;5.13;1.77;;;;;;;-0.19;71.88;99899.97;10544948;28;20672;-65
